sensor_id;sensor_type;location;lat;lon;timestamp;P1;durP1;ratioP1;P2;durP2;ratioP2
71715;SDS011;59568;52.128;5.434;2022-08-19T00:01:58;6.00;;;2.93;;
71715;SDS011;59568;52.128;5.434;2022-08-19T00:04:27;3.67;;;2.60;;
71715;SDS011;59568;52.128;5.434;2022-08-19T00:06:56;3.97;;;2.92;;
71715;SDS011;59568;52.128;5.434;2022-08-19T00:09:23;5.72;;;2.88;;
71715;SDS011;59568;52.128;5.434;2022-08-19T00:11:51;4.18;;;2.33;;
71715;SDS011;59568;52.128;5.434;2022-08-19T00:14:22;3.87;;;2.47;;
71715;SDS011;59568;52.128;5.434;2022-08-19T00:16:50;5.68;;;3.00;;
71715;SDS011;59568;52.128;5.434;2022-08-19T00:19:20;4.25;;;2.63;;
71715;SDS011;59568;52.128;5.434;2022-08-19T00:21:48;4.88;;;2.60;;
71715;SDS011;59568;52.128;5.434;2022-08-19T00:24:15;4.50;;;1.92;;
71715;SDS011;59568;52.128;5.434;2022-08-19T00:26:42;4.57;;;2.10;;
71715;SDS011;59568;52.128;5.434;2022-08-19T00:29:11;3.17;;;2.47;;
71715;SDS011;59568;52.128;5.434;2022-08-19T00:31:39;3.45;;;2.30;;
71715;SDS011;59568;52.128;5.434;2022-08-19T00:34:07;4.05;;;2.30;;
71715;SDS011;59568;52.128;5.434;2022-08-19T00:36:34;4.20;;;2.28;;
71715;SDS011;59568;52.128;5.434;2022-08-19T00:39:01;3.10;;;2.10;;
71715;SDS011;59568;52.128;5.434;2022-08-19T00:41:27;2.67;;;1.85;;
71715;SDS011;59568;52.128;5.434;2022-08-19T00:44:02;3.50;;;2.55;;
71715;SDS011;59568;52.128;5.434;2022-08-19T00:46:29;3.50;;;2.53;;
71715;SDS011;59568;52.128;5.434;2022-08-19T00:48:56;3.65;;;2.40;;
71715;SDS011;59568;52.128;5.434;2022-08-19T00:51:24;3.53;;;2.40;;
71715;SDS011;59568;52.128;5.434;2022-08-19T00:53:53;4.05;;;2.53;;
71715;SDS011;59568;52.128;5.434;2022-08-19T00:56:23;5.13;;;2.20;;
71715;SDS011;59568;52.128;5.434;2022-08-19T00:58:49;3.80;;;2.17;;
71715;SDS011;59568;52.128;5.434;2022-08-19T01:01:16;3.03;;;2.30;;
71715;SDS011;59568;52.128;5.434;2022-08-19T01:03:43;2.70;;;1.70;;
71715;SDS011;59568;52.128;5.434;2022-08-19T01:06:24;3.72;;;2.30;;
71715;SDS011;59568;52.128;5.434;2022-08-19T01:08:51;3.45;;;1.83;;
71715;SDS011;59568;52.128;5.434;2022-08-19T01:11:19;3.00;;;1.90;;
71715;SDS011;59568;52.128;5.434;2022-08-19T01:13:46;2.63;;;2.08;;
71715;SDS011;59568;52.128;5.434;2022-08-19T01:16:15;2.70;;;1.73;;
71715;SDS011;59568;52.128;5.434;2022-08-19T01:18:45;2.92;;;1.80;;
71715;SDS011;59568;52.128;5.434;2022-08-19T01:21:15;4.47;;;2.33;;
71715;SDS011;59568;52.128;5.434;2022-08-19T01:23:48;4.03;;;2.10;;
71715;SDS011;59568;52.128;5.434;2022-08-19T01:26:16;4.03;;;1.80;;
71715;SDS011;59568;52.128;5.434;2022-08-19T01:28:46;2.77;;;1.80;;
71715;SDS011;59568;52.128;5.434;2022-08-19T01:31:18;2.97;;;2.03;;
71715;SDS011;59568;52.128;5.434;2022-08-19T01:33:53;3.95;;;2.10;;
71715;SDS011;59568;52.128;5.434;2022-08-19T01:36:28;2.63;;;1.70;;
71715;SDS011;59568;52.128;5.434;2022-08-19T01:38:55;2.45;;;1.50;;
71715;SDS011;59568;52.128;5.434;2022-08-19T01:41:22;2.37;;;1.97;;
71715;SDS011;59568;52.128;5.434;2022-08-19T01:43:50;2.75;;;1.45;;
71715;SDS011;59568;52.128;5.434;2022-08-19T01:46:37;2.58;;;1.30;;
71715;SDS011;59568;52.128;5.434;2022-08-19T01:49:05;2.30;;;1.60;;
71715;SDS011;59568;52.128;5.434;2022-08-19T01:51:33;3.35;;;2.20;;
71715;SDS011;59568;52.128;5.434;2022-08-19T01:54:06;3.67;;;1.70;;
71715;SDS011;59568;52.128;5.434;2022-08-19T01:56:33;2.88;;;1.30;;
71715;SDS011;59568;52.128;5.434;2022-08-19T01:59:02;2.63;;;1.50;;
71715;SDS011;59568;52.128;5.434;2022-08-19T02:01:32;3.58;;;1.70;;
71715;SDS011;59568;52.128;5.434;2022-08-19T02:04:00;2.00;;;1.30;;
71715;SDS011;59568;52.128;5.434;2022-08-19T02:06:27;2.03;;;1.03;;
71715;SDS011;59568;52.128;5.434;2022-08-19T02:08:54;2.40;;;1.30;;
71715;SDS011;59568;52.128;5.434;2022-08-19T02:11:24;2.17;;;1.15;;
71715;SDS011;59568;52.128;5.434;2022-08-19T02:13:54;1.70;;;0.90;;
71715;SDS011;59568;52.128;5.434;2022-08-19T02:16:21;2.13;;;1.25;;
71715;SDS011;59568;52.128;5.434;2022-08-19T02:18:48;1.70;;;1.00;;
71715;SDS011;59568;52.128;5.434;2022-08-19T02:21:19;2.60;;;1.00;;
71715;SDS011;59568;52.128;5.434;2022-08-19T02:23:47;2.08;;;1.25;;
71715;SDS011;59568;52.128;5.434;2022-08-19T02:26:14;1.55;;;0.95;;
71715;SDS011;59568;52.128;5.434;2022-08-19T02:28:41;3.58;;;0.90;;
71715;SDS011;59568;52.128;5.434;2022-08-19T02:31:12;2.47;;;1.17;;
71715;SDS011;59568;52.128;5.434;2022-08-19T02:33:41;2.70;;;1.10;;
71715;SDS011;59568;52.128;5.434;2022-08-19T02:36:08;2.50;;;1.00;;
71715;SDS011;59568;52.128;5.434;2022-08-19T02:38:37;2.38;;;1.00;;
71715;SDS011;59568;52.128;5.434;2022-08-19T02:41:06;3.47;;;0.95;;
71715;SDS011;59568;52.128;5.434;2022-08-19T02:43:37;4.17;;;1.87;;
71715;SDS011;59568;52.128;5.434;2022-08-19T02:46:27;3.65;;;1.38;;
71715;SDS011;59568;52.128;5.434;2022-08-19T02:48:57;6.82;;;2.28;;
71715;SDS011;59568;52.128;5.434;2022-08-19T02:51:28;2.88;;;1.45;;
71715;SDS011;59568;52.128;5.434;2022-08-19T02:53:59;5.28;;;2.88;;
71715;SDS011;59568;52.128;5.434;2022-08-19T02:56:26;3.77;;;1.97;;
71715;SDS011;59568;52.128;5.434;2022-08-19T02:58:54;4.50;;;2.50;;
71715;SDS011;59568;52.128;5.434;2022-08-19T03:01:22;3.75;;;2.20;;
71715;SDS011;59568;52.128;5.434;2022-08-19T03:03:50;6.72;;;3.00;;
71715;SDS011;59568;52.128;5.434;2022-08-19T03:06:19;6.88;;;2.97;;
71715;SDS011;59568;52.128;5.434;2022-08-19T03:08:47;6.50;;;3.57;;
71715;SDS011;59568;52.128;5.434;2022-08-19T03:11:16;5.80;;;3.10;;
71715;SDS011;59568;52.128;5.434;2022-08-19T03:13:44;5.15;;;3.00;;
71715;SDS011;59568;52.128;5.434;2022-08-19T03:16:11;7.05;;;3.78;;
71715;SDS011;59568;52.128;5.434;2022-08-19T03:18:38;9.38;;;3.75;;
71715;SDS011;59568;52.128;5.434;2022-08-19T03:21:05;5.97;;;3.30;;
71715;SDS011;59568;52.128;5.434;2022-08-19T03:23:37;4.75;;;3.22;;
71715;SDS011;59568;52.128;5.434;2022-08-19T03:26:04;6.30;;;3.88;;
71715;SDS011;59568;52.128;5.434;2022-08-19T03:28:42;5.88;;;3.70;;
71715;SDS011;59568;52.128;5.434;2022-08-19T03:31:23;6.72;;;3.80;;
71715;SDS011;59568;52.128;5.434;2022-08-19T03:34:16;5.87;;;3.43;;
71715;SDS011;59568;52.128;5.434;2022-08-19T03:36:45;8.07;;;3.78;;
71715;SDS011;59568;52.128;5.434;2022-08-19T03:39:13;6.93;;;3.70;;
71715;SDS011;59568;52.128;5.434;2022-08-19T03:41:41;6.45;;;3.47;;
71715;SDS011;59568;52.128;5.434;2022-08-19T03:44:11;5.55;;;2.95;;
71715;SDS011;59568;52.128;5.434;2022-08-19T03:46:44;6.03;;;3.47;;
71715;SDS011;59568;52.128;5.434;2022-08-19T03:49:11;5.47;;;3.03;;
71715;SDS011;59568;52.128;5.434;2022-08-19T03:51:40;6.43;;;3.40;;
71715;SDS011;59568;52.128;5.434;2022-08-19T03:54:09;7.65;;;3.20;;
71715;SDS011;59568;52.128;5.434;2022-08-19T03:56:37;4.97;;;2.97;;
71715;SDS011;59568;52.128;5.434;2022-08-19T03:59:06;5.97;;;3.70;;
71715;SDS011;59568;52.128;5.434;2022-08-19T04:01:36;4.53;;;2.75;;
71715;SDS011;59568;52.128;5.434;2022-08-19T04:04:03;5.25;;;2.70;;
71715;SDS011;59568;52.128;5.434;2022-08-19T04:06:34;4.63;;;2.80;;
71715;SDS011;59568;52.128;5.434;2022-08-19T04:09:07;4.00;;;2.63;;
71715;SDS011;59568;52.128;5.434;2022-08-19T04:11:43;4.13;;;2.10;;
71715;SDS011;59568;52.128;5.434;2022-08-19T04:14:13;3.65;;;2.00;;
71715;SDS011;59568;52.128;5.434;2022-08-19T04:16:42;4.80;;;2.38;;
71715;SDS011;59568;52.128;5.434;2022-08-19T04:19:11;4.63;;;2.65;;
71715;SDS011;59568;52.128;5.434;2022-08-19T04:21:38;3.67;;;2.10;;
71715;SDS011;59568;52.128;5.434;2022-08-19T04:24:05;3.73;;;2.17;;
71715;SDS011;59568;52.128;5.434;2022-08-19T04:26:34;4.70;;;2.10;;
71715;SDS011;59568;52.128;5.434;2022-08-19T04:29:04;5.85;;;2.15;;
71715;SDS011;59568;52.128;5.434;2022-08-19T04:31:37;4.78;;;2.17;;
71715;SDS011;59568;52.128;5.434;2022-08-19T04:34:05;3.05;;;1.67;;
71715;SDS011;59568;52.128;5.434;2022-08-19T04:36:34;3.10;;;1.60;;
71715;SDS011;59568;52.128;5.434;2022-08-19T04:39:04;4.15;;;1.80;;
71715;SDS011;59568;52.128;5.434;2022-08-19T04:41:39;2.80;;;1.52;;
71715;SDS011;59568;52.128;5.434;2022-08-19T04:44:24;3.20;;;1.45;;
71715;SDS011;59568;52.128;5.434;2022-08-19T04:46:51;3.40;;;1.75;;
71715;SDS011;59568;52.128;5.434;2022-08-19T04:49:19;3.33;;;1.73;;
71715;SDS011;59568;52.128;5.434;2022-08-19T04:51:49;3.65;;;1.80;;
71715;SDS011;59568;52.128;5.434;2022-08-19T04:54:17;8.90;;;2.28;;
71715;SDS011;59568;52.128;5.434;2022-08-19T04:57:04;15.70;;;2.78;;
71715;SDS011;59568;52.128;5.434;2022-08-19T04:59:33;8.88;;;1.95;;
71715;SDS011;59568;52.128;5.434;2022-08-19T05:02:00;3.40;;;1.90;;
71715;SDS011;59568;52.128;5.434;2022-08-19T05:04:26;6.38;;;2.50;;
71715;SDS011;59568;52.128;5.434;2022-08-19T05:06:58;3.65;;;1.75;;
71715;SDS011;59568;52.128;5.434;2022-08-19T05:09:28;3.72;;;2.28;;
71715;SDS011;59568;52.128;5.434;2022-08-19T05:12:14;5.05;;;2.28;;
71715;SDS011;59568;52.128;5.434;2022-08-19T05:14:41;4.13;;;2.43;;
71715;SDS011;59568;52.128;5.434;2022-08-19T05:17:09;3.30;;;2.03;;
71715;SDS011;59568;52.128;5.434;2022-08-19T05:19:55;3.42;;;2.05;;
71715;SDS011;59568;52.128;5.434;2022-08-19T05:22:41;3.92;;;2.00;;
71715;SDS011;59568;52.128;5.434;2022-08-19T05:25:11;4.03;;;2.22;;
71715;SDS011;59568;52.128;5.434;2022-08-19T05:27:41;3.70;;;2.10;;
71715;SDS011;59568;52.128;5.434;2022-08-19T05:30:08;3.45;;;2.00;;
71715;SDS011;59568;52.128;5.434;2022-08-19T05:32:35;3.47;;;2.30;;
71715;SDS011;59568;52.128;5.434;2022-08-19T05:35:03;4.63;;;2.30;;
71715;SDS011;59568;52.128;5.434;2022-08-19T05:37:30;3.25;;;1.98;;
71715;SDS011;59568;52.128;5.434;2022-08-19T05:39:57;3.57;;;1.70;;
71715;SDS011;59568;52.128;5.434;2022-08-19T05:42:23;3.58;;;2.00;;
71715;SDS011;59568;52.128;5.434;2022-08-19T05:44:50;4.35;;;1.95;;
71715;SDS011;59568;52.128;5.434;2022-08-19T05:47:17;3.65;;;1.95;;
71715;SDS011;59568;52.128;5.434;2022-08-19T05:49:46;2.63;;;1.73;;
71715;SDS011;59568;52.128;5.434;2022-08-19T05:52:14;3.47;;;2.07;;
71715;SDS011;59568;52.128;5.434;2022-08-19T05:54:44;3.20;;;1.83;;
71715;SDS011;59568;52.128;5.434;2022-08-19T05:57:16;3.63;;;2.30;;
71715;SDS011;59568;52.128;5.434;2022-08-19T05:59:44;3.08;;;1.85;;
71715;SDS011;59568;52.128;5.434;2022-08-19T06:02:14;4.53;;;2.83;;
71715;SDS011;59568;52.128;5.434;2022-08-19T06:04:40;4.03;;;2.57;;
71715;SDS011;59568;52.128;5.434;2022-08-19T06:07:09;6.63;;;3.65;;
71715;SDS011;59568;52.128;5.434;2022-08-19T06:09:38;5.47;;;2.72;;
71715;SDS011;59568;52.128;5.434;2022-08-19T06:12:05;6.93;;;3.75;;
71715;SDS011;59568;52.128;5.434;2022-08-19T06:14:33;5.28;;;3.15;;
71715;SDS011;59568;52.128;5.434;2022-08-19T06:17:07;5.00;;;3.10;;
71715;SDS011;59568;52.128;5.434;2022-08-19T06:19:34;5.22;;;3.10;;
71715;SDS011;59568;52.128;5.434;2022-08-19T06:22:06;8.38;;;4.55;;
71715;SDS011;59568;52.128;5.434;2022-08-19T06:24:34;7.72;;;4.43;;
71715;SDS011;59568;52.128;5.434;2022-08-19T06:27:01;12.93;;;6.60;;
71715;SDS011;59568;52.128;5.434;2022-08-19T06:29:29;9.83;;;5.10;;
71715;SDS011;59568;52.128;5.434;2022-08-19T06:31:57;13.18;;;6.75;;
71715;SDS011;59568;52.128;5.434;2022-08-19T06:34:25;16.98;;;8.88;;
71715;SDS011;59568;52.128;5.434;2022-08-19T06:36:54;14.65;;;8.68;;
71715;SDS011;59568;52.128;5.434;2022-08-19T06:39:23;18.20;;;9.73;;
71715;SDS011;59568;52.128;5.434;2022-08-19T06:41:53;17.73;;;9.73;;
71715;SDS011;59568;52.128;5.434;2022-08-19T06:44:24;22.30;;;12.35;;
71715;SDS011;59568;52.128;5.434;2022-08-19T06:46:55;17.83;;;9.90;;
71715;SDS011;59568;52.128;5.434;2022-08-19T06:49:23;29.73;;;14.75;;
71715;SDS011;59568;52.128;5.434;2022-08-19T06:51:50;25.73;;;12.98;;
71715;SDS011;59568;52.128;5.434;2022-08-19T06:54:17;31.97;;;17.60;;
71715;SDS011;59568;52.128;5.434;2022-08-19T06:56:45;42.70;;;19.15;;
71715;SDS011;59568;52.128;5.434;2022-08-19T06:59:14;34.22;;;17.13;;
71715;SDS011;59568;52.128;5.434;2022-08-19T07:01:45;32.38;;;16.33;;
71715;SDS011;59568;52.128;5.434;2022-08-19T07:04:16;45.20;;;19.35;;
71715;SDS011;59568;52.128;5.434;2022-08-19T07:06:45;34.70;;;15.13;;
71715;SDS011;59568;52.128;5.434;2022-08-19T07:09:20;33.10;;;15.18;;
71715;SDS011;59568;52.128;5.434;2022-08-19T07:11:48;47.28;;;18.50;;
71715;SDS011;59568;52.128;5.434;2022-08-19T07:14:18;40.42;;;16.92;;
71715;SDS011;59568;52.128;5.434;2022-08-19T07:16:46;42.67;;;16.98;;
71715;SDS011;59568;52.128;5.434;2022-08-19T07:19:15;44.30;;;18.90;;
71715;SDS011;59568;52.128;5.434;2022-08-19T07:21:44;42.95;;;18.20;;
71715;SDS011;59568;52.128;5.434;2022-08-19T07:24:12;42.33;;;19.20;;
71715;SDS011;59568;52.128;5.434;2022-08-19T07:26:40;43.40;;;20.70;;
71715;SDS011;59568;52.128;5.434;2022-08-19T07:29:09;46.15;;;22.30;;
71715;SDS011;59568;52.128;5.434;2022-08-19T07:31:36;46.43;;;23.13;;
71715;SDS011;59568;52.128;5.434;2022-08-19T07:34:04;41.28;;;20.55;;
71715;SDS011;59568;52.128;5.434;2022-08-19T07:36:35;44.97;;;21.38;;
71715;SDS011;59568;52.128;5.434;2022-08-19T07:39:08;44.08;;;21.70;;
71715;SDS011;59568;52.128;5.434;2022-08-19T07:41:39;45.55;;;21.35;;
71715;SDS011;59568;52.128;5.434;2022-08-19T07:44:06;45.03;;;20.87;;
71715;SDS011;59568;52.128;5.434;2022-08-19T07:46:35;42.95;;;21.92;;
71715;SDS011;59568;52.128;5.434;2022-08-19T07:49:06;47.40;;;22.63;;
71715;SDS011;59568;52.128;5.434;2022-08-19T07:51:34;41.00;;;23.05;;
71715;SDS011;59568;52.128;5.434;2022-08-19T07:54:02;40.22;;;20.45;;
71715;SDS011;59568;52.128;5.434;2022-08-19T07:56:29;41.40;;;20.73;;
71715;SDS011;59568;52.128;5.434;2022-08-19T07:58:56;42.85;;;22.52;;
71715;SDS011;59568;52.128;5.434;2022-08-19T08:01:24;38.33;;;20.95;;
71715;SDS011;59568;52.128;5.434;2022-08-19T08:03:54;44.10;;;21.45;;
71715;SDS011;59568;52.128;5.434;2022-08-19T08:06:41;36.13;;;19.75;;
71715;SDS011;59568;52.128;5.434;2022-08-19T08:09:35;34.97;;;17.77;;
71715;SDS011;59568;52.128;5.434;2022-08-19T08:12:09;30.67;;;17.40;;
71715;SDS011;59568;52.128;5.434;2022-08-19T08:14:59;33.83;;;17.38;;
71715;SDS011;59568;52.128;5.434;2022-08-19T08:17:34;33.25;;;17.60;;
71715;SDS011;59568;52.128;5.434;2022-08-19T08:20:17;28.90;;;16.55;;
71715;SDS011;59568;52.128;5.434;2022-08-19T08:22:45;28.17;;;15.80;;
71715;SDS011;59568;52.128;5.434;2022-08-19T08:25:31;27.67;;;15.40;;
71715;SDS011;59568;52.128;5.434;2022-08-19T08:27:59;28.02;;;16.13;;
71715;SDS011;59568;52.128;5.434;2022-08-19T08:30:27;25.45;;;16.05;;
71715;SDS011;59568;52.128;5.434;2022-08-19T08:32:58;27.58;;;15.40;;
71715;SDS011;59568;52.128;5.434;2022-08-19T08:35:25;26.50;;;14.73;;
71715;SDS011;59568;52.128;5.434;2022-08-19T08:37:52;26.63;;;14.80;;
71715;SDS011;59568;52.128;5.434;2022-08-19T08:40:23;27.42;;;14.90;;
71715;SDS011;59568;52.128;5.434;2022-08-19T08:49:04;25.03;;;14.30;;
71715;SDS011;59568;52.128;5.434;2022-08-19T08:51:52;24.52;;;13.48;;
71715;SDS011;59568;52.128;5.434;2022-08-19T08:54:32;25.00;;;14.25;;
71715;SDS011;59568;52.128;5.434;2022-08-19T08:57:03;22.60;;;13.38;;
71715;SDS011;59568;52.128;5.434;2022-08-19T08:59:34;23.30;;;13.98;;
71715;SDS011;59568;52.128;5.434;2022-08-19T09:02:03;23.57;;;13.10;;
71715;SDS011;59568;52.128;5.434;2022-08-19T09:04:31;23.73;;;12.45;;
71715;SDS011;59568;52.128;5.434;2022-08-19T09:15:44;20.23;;;11.60;;
71715;SDS011;59568;52.128;5.434;2022-08-19T09:18:15;19.63;;;10.95;;
71715;SDS011;59568;52.128;5.434;2022-08-19T09:20:44;21.48;;;11.18;;
71715;SDS011;59568;52.128;5.434;2022-08-19T09:23:13;19.55;;;9.70;;
71715;SDS011;59568;52.128;5.434;2022-08-19T09:25:40;18.42;;;10.57;;
71715;SDS011;59568;52.128;5.434;2022-08-19T09:28:07;18.03;;;11.33;;
71715;SDS011;59568;52.128;5.434;2022-08-19T09:30:47;21.77;;;11.50;;
71715;SDS011;59568;52.128;5.434;2022-08-19T09:33:14;18.20;;;9.52;;
71715;SDS011;59568;52.128;5.434;2022-08-19T09:35:42;17.17;;;10.02;;
71715;SDS011;59568;52.128;5.434;2022-08-19T09:38:18;18.27;;;10.38;;
71715;SDS011;59568;52.128;5.434;2022-08-19T09:40:45;16.80;;;10.20;;
71715;SDS011;59568;52.128;5.434;2022-08-19T09:43:12;20.73;;;11.27;;
71715;SDS011;59568;52.128;5.434;2022-08-19T09:45:39;17.17;;;10.05;;
71715;SDS011;59568;52.128;5.434;2022-08-19T09:48:06;18.42;;;9.73;;
71715;SDS011;59568;52.128;5.434;2022-08-19T09:50:34;17.17;;;10.02;;
71715;SDS011;59568;52.128;5.434;2022-08-19T09:53:02;16.97;;;10.37;;
71715;SDS011;59568;52.128;5.434;2022-08-19T09:55:31;14.80;;;8.98;;
71715;SDS011;59568;52.128;5.434;2022-08-19T09:57:59;16.70;;;9.77;;
71715;SDS011;59568;52.128;5.434;2022-08-19T10:00:27;15.05;;;8.98;;
71715;SDS011;59568;52.128;5.434;2022-08-19T10:02:54;17.08;;;8.82;;
71715;SDS011;59568;52.128;5.434;2022-08-19T10:05:21;13.13;;;8.70;;
71715;SDS011;59568;52.128;5.434;2022-08-19T10:08:07;12.32;;;8.10;;
71715;SDS011;59568;52.128;5.434;2022-08-19T10:10:39;14.85;;;9.07;;
71715;SDS011;59568;52.128;5.434;2022-08-19T10:13:13;14.25;;;7.65;;
71715;SDS011;59568;52.128;5.434;2022-08-19T10:15:41;13.35;;;8.15;;
71715;SDS011;59568;52.128;5.434;2022-08-19T10:18:12;15.40;;;8.70;;
71715;SDS011;59568;52.128;5.434;2022-08-19T10:20:39;10.82;;;7.50;;
71715;SDS011;59568;52.128;5.434;2022-08-19T10:23:08;15.45;;;9.07;;
71715;SDS011;59568;52.128;5.434;2022-08-19T10:25:35;15.45;;;9.48;;
71715;SDS011;59568;52.128;5.434;2022-08-19T10:28:03;14.98;;;9.48;;
71715;SDS011;59568;52.128;5.434;2022-08-19T10:30:36;16.97;;;9.27;;
71715;SDS011;59568;52.128;5.434;2022-08-19T10:33:03;12.50;;;9.30;;
71715;SDS011;59568;52.128;5.434;2022-08-19T10:35:36;15.20;;;9.18;;
71715;SDS011;59568;52.128;5.434;2022-08-19T10:38:21;18.05;;;10.32;;
71715;SDS011;59568;52.128;5.434;2022-08-19T10:40:56;12.68;;;9.02;;
71715;SDS011;59568;52.128;5.434;2022-08-19T10:43:23;17.03;;;10.60;;
71715;SDS011;59568;52.128;5.434;2022-08-19T10:45:54;16.98;;;10.35;;
71715;SDS011;59568;52.128;5.434;2022-08-19T10:48:25;17.63;;;11.40;;
71715;SDS011;59568;52.128;5.434;2022-08-19T10:50:52;18.92;;;10.50;;
71715;SDS011;59568;52.128;5.434;2022-08-19T10:53:48;15.70;;;10.48;;
71715;SDS011;59568;52.128;5.434;2022-08-19T10:56:16;15.13;;;8.73;;
71715;SDS011;59568;52.128;5.434;2022-08-19T10:59:02;16.92;;;11.00;;
71715;SDS011;59568;52.128;5.434;2022-08-19T11:01:30;16.00;;;10.70;;
71715;SDS011;59568;52.128;5.434;2022-08-19T11:04:00;16.63;;;11.07;;
71715;SDS011;59568;52.128;5.434;2022-08-19T11:06:28;19.00;;;11.68;;
71715;SDS011;59568;52.128;5.434;2022-08-19T11:08:56;17.87;;;13.07;;
71715;SDS011;59568;52.128;5.434;2022-08-19T11:11:22;13.15;;;10.25;;
71715;SDS011;59568;52.128;5.434;2022-08-19T11:13:49;14.63;;;11.55;;
71715;SDS011;59568;52.128;5.434;2022-08-19T11:16:17;17.40;;;12.80;;
71715;SDS011;59568;52.128;5.434;2022-08-19T11:18:50;16.67;;;11.32;;
71715;SDS011;59568;52.128;5.434;2022-08-19T11:21:20;19.90;;;12.90;;
71715;SDS011;59568;52.128;5.434;2022-08-19T11:23:50;18.45;;;13.80;;
71715;SDS011;59568;52.128;5.434;2022-08-19T11:26:20;19.10;;;13.57;;
71715;SDS011;59568;52.128;5.434;2022-08-19T11:28:47;22.75;;;14.07;;
71715;SDS011;59568;52.128;5.434;2022-08-19T11:31:15;21.42;;;14.32;;
71715;SDS011;59568;52.128;5.434;2022-08-19T11:33:45;16.93;;;11.63;;
71715;SDS011;59568;52.128;5.434;2022-08-19T11:36:13;21.85;;;14.63;;
71715;SDS011;59568;52.128;5.434;2022-08-19T11:38:40;21.45;;;13.50;;
71715;SDS011;59568;52.128;5.434;2022-08-19T11:41:07;22.63;;;14.82;;
71715;SDS011;59568;52.128;5.434;2022-08-19T11:43:36;16.45;;;12.55;;
71715;SDS011;59568;52.128;5.434;2022-08-19T11:46:04;19.37;;;12.40;;
71715;SDS011;59568;52.128;5.434;2022-08-19T11:48:33;17.48;;;12.63;;
71715;SDS011;59568;52.128;5.434;2022-08-19T11:51:03;17.65;;;12.73;;
71715;SDS011;59568;52.128;5.434;2022-08-19T11:53:35;21.38;;;14.68;;
71715;SDS011;59568;52.128;5.434;2022-08-19T11:56:03;16.10;;;11.45;;
71715;SDS011;59568;52.128;5.434;2022-08-19T11:58:31;20.27;;;13.03;;
71715;SDS011;59568;52.128;5.434;2022-08-19T12:00:58;22.70;;;13.30;;
71715;SDS011;59568;52.128;5.434;2022-08-19T12:03:25;17.38;;;10.98;;
71715;SDS011;59568;52.128;5.434;2022-08-19T12:05:52;24.83;;;15.60;;
71715;SDS011;59568;52.128;5.434;2022-08-19T12:08:19;20.45;;;13.15;;
71715;SDS011;59568;52.128;5.434;2022-08-19T12:10:45;22.20;;;13.13;;
71715;SDS011;59568;52.128;5.434;2022-08-19T12:13:12;17.95;;;12.38;;
71715;SDS011;59568;52.128;5.434;2022-08-19T12:15:45;22.25;;;13.27;;
71715;SDS011;59568;52.128;5.434;2022-08-19T12:18:14;18.85;;;12.40;;
71715;SDS011;59568;52.128;5.434;2022-08-19T12:20:41;20.40;;;14.85;;
71715;SDS011;59568;52.128;5.434;2022-08-19T12:23:09;17.97;;;11.10;;
71715;SDS011;59568;52.128;5.434;2022-08-19T12:25:37;18.25;;;11.82;;
71715;SDS011;59568;52.128;5.434;2022-08-19T12:28:09;17.55;;;11.40;;
71715;SDS011;59568;52.128;5.434;2022-08-19T12:30:37;20.10;;;13.10;;
71715;SDS011;59568;52.128;5.434;2022-08-19T12:33:04;17.77;;;11.93;;
71715;SDS011;59568;52.128;5.434;2022-08-19T12:35:30;15.73;;;10.60;;
71715;SDS011;59568;52.128;5.434;2022-08-19T12:37:57;17.23;;;12.07;;
71715;SDS011;59568;52.128;5.434;2022-08-19T12:40:26;21.52;;;12.38;;
71715;SDS011;59568;52.128;5.434;2022-08-19T12:42:53;20.63;;;11.98;;
71715;SDS011;59568;52.128;5.434;2022-08-19T12:45:20;16.15;;;12.98;;
71715;SDS011;59568;52.128;5.434;2022-08-19T12:47:48;19.30;;;13.03;;
71715;SDS011;59568;52.128;5.434;2022-08-19T12:50:20;19.92;;;13.40;;
71715;SDS011;59568;52.128;5.434;2022-08-19T12:52:47;18.67;;;12.30;;
71715;SDS011;59568;52.128;5.434;2022-08-19T12:55:14;18.70;;;12.43;;
71715;SDS011;59568;52.128;5.434;2022-08-19T12:57:41;19.05;;;12.23;;
71715;SDS011;59568;52.128;5.434;2022-08-19T13:00:15;16.57;;;11.90;;
71715;SDS011;59568;52.128;5.434;2022-08-19T13:02:45;13.02;;;9.70;;
71715;SDS011;59568;52.128;5.434;2022-08-19T13:05:13;17.45;;;10.45;;
71715;SDS011;59568;52.128;5.434;2022-08-19T13:07:42;17.17;;;11.00;;
71715;SDS011;59568;52.128;5.434;2022-08-19T13:10:10;15.20;;;10.57;;
71715;SDS011;59568;52.128;5.434;2022-08-19T13:12:39;15.27;;;9.73;;
71715;SDS011;59568;52.128;5.434;2022-08-19T13:15:07;13.85;;;10.57;;
71715;SDS011;59568;52.128;5.434;2022-08-19T13:17:36;13.27;;;9.88;;
71715;SDS011;59568;52.128;5.434;2022-08-19T13:20:04;14.10;;;9.93;;
71715;SDS011;59568;52.128;5.434;2022-08-19T13:22:33;12.75;;;9.20;;
71715;SDS011;59568;52.128;5.434;2022-08-19T13:25:02;16.20;;;11.67;;
71715;SDS011;59568;52.128;5.434;2022-08-19T13:27:29;13.98;;;9.48;;
71715;SDS011;59568;52.128;5.434;2022-08-19T13:29:56;13.02;;;10.52;;
71715;SDS011;59568;52.128;5.434;2022-08-19T13:32:43;11.77;;;8.02;;
71715;SDS011;59568;52.128;5.434;2022-08-19T13:35:28;12.23;;;9.13;;
71715;SDS011;59568;52.128;5.434;2022-08-19T13:37:55;17.50;;;10.00;;
71715;SDS011;59568;52.128;5.434;2022-08-19T13:40:22;12.50;;;8.63;;
71715;SDS011;59568;52.128;5.434;2022-08-19T13:42:53;16.17;;;11.27;;
71715;SDS011;59568;52.128;5.434;2022-08-19T13:45:21;14.23;;;9.68;;
71715;SDS011;59568;52.128;5.434;2022-08-19T13:47:50;14.85;;;9.52;;
71715;SDS011;59568;52.128;5.434;2022-08-19T13:50:26;12.03;;;8.60;;
71715;SDS011;59568;52.128;5.434;2022-08-19T13:52:57;14.93;;;11.20;;
71715;SDS011;59568;52.128;5.434;2022-08-19T13:55:24;12.85;;;8.88;;
71715;SDS011;59568;52.128;5.434;2022-08-19T13:57:53;14.00;;;9.38;;
71715;SDS011;59568;52.128;5.434;2022-08-19T14:00:22;17.27;;;9.70;;
71715;SDS011;59568;52.128;5.434;2022-08-19T14:02:53;12.10;;;9.37;;
71715;SDS011;59568;52.128;5.434;2022-08-19T14:05:22;11.00;;;8.05;;
71715;SDS011;59568;52.128;5.434;2022-08-19T14:07:50;12.55;;;7.32;;
71715;SDS011;59568;52.128;5.434;2022-08-19T14:10:17;10.98;;;7.72;;
71715;SDS011;59568;52.128;5.434;2022-08-19T14:12:45;13.52;;;7.13;;
71715;SDS011;59568;52.128;5.434;2022-08-19T14:15:13;11.07;;;6.77;;
71715;SDS011;59568;52.128;5.434;2022-08-19T14:17:41;11.00;;;6.10;;
71715;SDS011;59568;52.128;5.434;2022-08-19T14:20:09;10.25;;;5.22;;
71715;SDS011;59568;52.128;5.434;2022-08-19T14:22:43;7.10;;;4.53;;
71715;SDS011;59568;52.128;5.434;2022-08-19T14:25:13;6.95;;;4.57;;
71715;SDS011;59568;52.128;5.434;2022-08-19T14:27:43;6.80;;;4.47;;
71715;SDS011;59568;52.128;5.434;2022-08-19T14:30:12;8.70;;;5.18;;
71715;SDS011;59568;52.128;5.434;2022-08-19T14:32:42;7.95;;;4.80;;
71715;SDS011;59568;52.128;5.434;2022-08-19T14:35:12;10.82;;;6.72;;
71715;SDS011;59568;52.128;5.434;2022-08-19T14:37:42;8.00;;;4.93;;
71715;SDS011;59568;52.128;5.434;2022-08-19T14:40:12;8.93;;;5.90;;
71715;SDS011;59568;52.128;5.434;2022-08-19T14:42:41;10.52;;;5.97;;
71715;SDS011;59568;52.128;5.434;2022-08-19T14:45:08;12.93;;;5.88;;
71715;SDS011;59568;52.128;5.434;2022-08-19T14:47:37;7.68;;;5.13;;
71715;SDS011;59568;52.128;5.434;2022-08-19T14:50:06;8.02;;;5.95;;
71715;SDS011;59568;52.128;5.434;2022-08-19T14:52:36;12.87;;;6.73;;
71715;SDS011;59568;52.128;5.434;2022-08-19T14:55:04;8.23;;;5.40;;
71715;SDS011;59568;52.128;5.434;2022-08-19T14:57:32;8.85;;;5.90;;
71715;SDS011;59568;52.128;5.434;2022-08-19T14:59:59;13.93;;;7.72;;
71715;SDS011;59568;52.128;5.434;2022-08-19T15:02:26;7.53;;;5.60;;
71715;SDS011;59568;52.128;5.434;2022-08-19T15:05:00;8.23;;;6.03;;
71715;SDS011;59568;52.128;5.434;2022-08-19T15:07:28;9.10;;;6.03;;